Time;durP1;ratioP1;P1;durP2;ratioP2;P2;SDS_P1;SDS_P2;PMS_P1;PMS_P2;Temp;Humidity;BMP_temperature;BMP_pressure;BME280_temperature;BME280_humidity;BME280_pressure;Samples;Min_cycle;Max_cycle;Signal;HPM_P1;HPM_P2
2021/11/03 00:01:11;;;;;;;17.80;15.70;;;;;;;;;;5103095;27;20872;-83
2021/11/03 00:03:38;;;;;;;18.02;15.43;;;;;;;;;;5104908;28;20979;-83
2021/11/03 00:06:05;;;;;;;17.70;15.82;;;;;;;;;;5108413;28;20402;-83
2021/11/03 00:08:33;;;;;;;18.00;15.23;;;;;;;;;;5105380;28;20401;-83
2021/11/03 00:11:00;;;;;;;17.38;14.27;;;;;;;;;;5108026;28;20879;-83
2021/11/03 00:13:28;;;;;;;18.10;13.90;;;;;;;;;;5105976;28;20484;-84
2021/11/03 00:15:57;;;;;;;15.75;13.93;;;;;;;;;;5107001;28;20406;-83
2021/11/03 00:18:25;;;;;;;16.20;13.88;;;;;;;;;;5105223;28;20394;-83
2021/11/03 00:20:52;;;;;;;14.93;13.32;;;;;;;;;;5107703;28;20398;-83
2021/11/03 00:23:19;;;;;;;15.77;13.55;;;;;;;;;;5104249;28;20398;-84
2021/11/03 00:25:47;;;;;;;16.45;13.48;;;;;;;;;;5101763;28;20394;-84
2021/11/03 00:28:15;;;;;;;15.68;13.45;;;;;;;;;;5107508;28;20469;-83
2021/11/03 00:30:42;;;;;;;17.08;14.40;;;;;;;;;;5105016;28;20406;-83
2021/11/03 00:33:10;;;;;;;16.20;14.07;;;;;;;;;;5102853;28;20458;-83
2021/11/03 00:35:37;;;;;;;15.20;13.60;;;;;;;;;;5106091;28;20447;-83
2021/11/03 00:38:04;;;;;;;17.63;14.10;;;;;;;;;;5107521;28;20403;-83
2021/11/03 00:40:31;;;;;;;15.75;13.82;;;;;;;;;;5107926;28;20892;-83
2021/11/03 00:42:58;;;;;;;15.43;12.82;;;;;;;;;;5102989;28;20858;-83
2021/11/03 00:45:25;;;;;;;14.43;12.93;;;;;;;;;;5107592;28;20421;-83
2021/11/03 00:47:52;;;;;;;14.95;12.88;;;;;;;;;;5105567;28;20406;-83
2021/11/03 00:50:22;;;;;;;14.75;12.45;;;;;;;;;;5097045;28;20394;-83
2021/11/03 00:52:49;;;;;;;13.25;11.35;;;;;;;;;;5100136;28;20430;-83
2021/11/03 00:55:16;;;;;;;13.75;11.32;;;;;;;;;;5107315;28;20397;-83
2021/11/03 00:57:43;;;;;;;13.23;11.20;;;;;;;;;;5107525;28;20481;-83
2021/11/03 01:00:11;;;;;;;12.52;11.23;;;;;;;;;;5103522;28;20914;-83
2021/11/03 01:02:38;;;;;;;13.48;11.20;;;;;;;;;;5106241;28;20436;-83
2021/11/03 01:05:08;;;;;;;14.05;11.25;;;;;;;;;;5104737;28;20407;-83
2021/11/03 01:07:36;;;;;;;12.27;10.98;;;;;;;;;;5106978;28;20472;-83
2021/11/03 01:10:04;;;;;;;12.30;11.00;;;;;;;;;;5104559;28;20970;-83
2021/11/03 01:12:31;;;;;;;12.85;10.75;;;;;;;;;;5106847;28;20398;-83
2021/11/03 01:14:57;;;;;;;12.38;10.07;;;;;;;;;;5103983;28;20889;-83
2021/11/03 01:17:24;;;;;;;13.52;10.43;;;;;;;;;;5096988;28;20448;-83
2021/11/03 01:19:51;;;;;;;12.05;10.23;;;;;;;;;;5106605;28;20402;-84
2021/11/03 01:22:18;;;;;;;12.38;10.88;;;;;;;;;;5102399;28;20396;-83
2021/11/03 01:24:46;;;;;;;13.07;11.27;;;;;;;;;;5100706;28;20882;-83
2021/11/03 01:27:13;;;;;;;13.23;11.40;;;;;;;;;;5103648;28;20403;-83
2021/11/03 01:29:40;;;;;;;12.48;11.10;;;;;;;;;;5102655;28;20396;-83
2021/11/03 01:32:08;;;;;;;14.30;12.05;;;;;;;;;;5100708;28;20430;-83
2021/11/03 01:34:34;;;;;;;14.27;12.15;;;;;;;;;;5102382;27;20392;-83
2021/11/03 01:37:01;;;;;;;14.52;12.30;;;;;;;;;;5105977;28;20902;-83
2021/11/03 01:39:29;;;;;;;15.15;12.65;;;;;;;;;;5105685;28;20399;-83
2021/11/03 01:41:57;;;;;;;16.35;13.23;;;;;;;;;;5106319;28;20399;-83
2021/11/03 01:44:24;;;;;;;15.18;12.55;;;;;;;;;;5101678;28;20394;-83
2021/11/03 01:46:53;;;;;;;14.70;12.30;;;;;;;;;;5099494;28;20944;-83
2021/11/03 01:49:22;;;;;;;14.27;12.32;;;;;;;;;;5099959;28;20407;-83
2021/11/03 01:51:54;;;;;;;14.98;12.70;;;;;;;;;;5102835;28;20405;-83
2021/11/03 01:54:25;;;;;;;13.90;12.00;;;;;;;;;;5101139;28;20713;-83
2021/11/03 01:56:53;;;;;;;13.45;11.68;;;;;;;;;;5103957;28;20419;-83
2021/11/03 01:59:25;;;;;;;13.65;11.38;;;;;;;;;;5105762;28;20399;-83
2021/11/03 02:01:52;;;;;;;12.35;11.05;;;;;;;;;;5102458;28;20428;-83
2021/11/03 02:04:20;;;;;;;12.57;10.95;;;;;;;;;;5101925;28;20785;-83
2021/11/03 02:06:48;;;;;;;12.47;10.93;;;;;;;;;;5105796;28;20402;-84
2021/11/03 02:09:15;;;;;;;12.83;11.43;;;;;;;;;;5104957;28;20399;-84
2021/11/03 02:11:42;;;;;;;15.02;11.65;;;;;;;;;;5103639;28;20410;-84
2021/11/03 02:14:10;;;;;;;14.47;12.00;;;;;;;;;;5103763;28;20395;-84
2021/11/03 02:16:41;;;;;;;12.35;10.77;;;;;;;;;;5103857;28;20406;-84
2021/11/03 02:19:13;;;;;;;14.57;11.38;;;;;;;;;;5103165;28;20398;-83
2021/11/03 02:21:47;;;;;;;12.75;11.23;;;;;;;;;;5101634;28;20489;-84
2021/11/03 02:24:20;;;;;;;13.77;11.07;;;;;;;;;;5098163;28;20404;-83
2021/11/03 02:26:50;;;;;;;12.75;11.02;;;;;;;;;;5104869;28;20402;-83
2021/11/03 02:29:20;;;;;;;11.30;10.10;;;;;;;;;;5101437;28;20390;-83
2021/11/03 02:31:51;;;;;;;12.57;10.67;;;;;;;;;;5099236;28;20459;-84
2021/11/03 02:34:21;;;;;;;13.15;10.45;;;;;;;;;;5101513;28;20478;-84
2021/11/03 02:36:53;;;;;;;12.07;10.65;;;;;;;;;;5130170;28;20386;-83
2021/11/03 02:39:27;;;;;;;11.80;10.55;;;;;;;;;;5110035;28;20403;-84
2021/11/03 02:41:56;;;;;;;13.13;10.75;;;;;;;;;;5101318;28;20394;-83
2021/11/03 02:44:26;;;;;;;14.65;11.15;;;;;;;;;;5097195;28;20394;-83
2021/11/03 02:46:53;;;;;;;13.50;11.38;;;;;;;;;;5098461;28;20394;-84
2021/11/03 02:49:19;;;;;;;12.63;10.77;;;;;;;;;;5102700;28;20398;-83
2021/11/03 02:51:46;;;;;;;14.07;10.70;;;;;;;;;;5101515;28;20410;-84
2021/11/03 02:54:15;;;;;;;11.70;9.85;;;;;;;;;;5104466;28;20401;-84
2021/11/03 02:56:44;;;;;;;12.03;10.07;;;;;;;;;;5100756;28;20402;-84
2021/11/03 02:59:15;;;;;;;10.95;9.80;;;;;;;;;;5104146;28;20426;-83
2021/11/03 03:01:46;;;;;;;11.70;10.40;;;;;;;;;;5101872;28;20966;-83
2021/11/03 03:04:17;;;;;;;11.73;10.40;;;;;;;;;;5105054;28;20456;-83
2021/11/03 03:06:44;;;;;;;11.02;9.77;;;;;;;;;;5104081;28;20414;-83
2021/11/03 03:09:12;;;;;;;11.73;9.80;;;;;;;;;;5099206;28;20434;-84
2021/11/03 03:11:43;;;;;;;10.68;9.57;;;;;;;;;;5088149;28;20403;-83
2021/11/03 03:14:12;;;;;;;12.23;9.80;;;;;;;;;;5096659;28;20747;-82
2021/11/03 03:16:39;;;;;;;10.75;9.45;;;;;;;;;;5106689;27;20718;-81
2021/11/03 03:19:06;;;;;;;10.30;9.02;;;;;;;;;;5102250;28;20959;-81
2021/11/03 03:21:33;;;;;;;10.80;9.70;;;;;;;;;;5095191;28;20784;-81
2021/11/03 03:24:02;;;;;;;10.63;9.50;;;;;;;;;;5104275;28;20889;-81
2021/11/03 03:26:29;;;;;;;13.18;10.07;;;;;;;;;;5104628;28;20406;-82
2021/11/03 03:28:56;;;;;;;11.18;9.75;;;;;;;;;;5093258;28;20410;-82
2021/11/03 03:31:25;;;;;;;10.67;9.23;;;;;;;;;;5103711;28;20404;-82
2021/11/03 03:33:55;;;;;;;10.60;9.50;;;;;;;;;;5102607;28;20475;-82
2021/11/03 03:36:23;;;;;;;9.73;8.52;;;;;;;;;;5102571;28;20402;-82
2021/11/03 03:38:50;;;;;;;9.73;8.73;;;;;;;;;;5108273;28;20581;-82
2021/11/03 03:41:17;;;;;;;11.05;8.93;;;;;;;;;;5094718;28;20606;-82
2021/11/03 03:43:45;;;;;;;10.52;8.90;;;;;;;;;;5099122;28;20387;-82
2021/11/03 03:46:13;;;;;;;9.77;8.68;;;;;;;;;;5098757;28;20759;-82
2021/11/03 03:48:42;;;;;;;9.90;8.68;;;;;;;;;;5107476;28;21158;-82
2021/11/03 03:51:11;;;;;;;9.87;8.87;;;;;;;;;;5102162;28;20419;-82
2021/11/03 03:53:38;;;;;;;9.15;8.25;;;;;;;;;;5102908;28;20404;-82
2021/11/03 03:56:06;;;;;;;9.32;8.13;;;;;;;;;;5099396;28;20408;-82
2021/11/03 03:58:33;;;;;;;9.23;8.07;;;;;;;;;;5097076;28;20419;-83
2021/11/03 04:01:00;;;;;;;9.30;8.13;;;;;;;;;;5097071;28;20481;-82
2021/11/03 04:03:27;;;;;;;9.32;8.10;;;;;;;;;;5101108;28;20396;-83
2021/11/03 04:05:56;;;;;;;8.77;7.32;;;;;;;;;;5100049;28;20423;-83
2021/11/03 04:08:24;;;;;;;8.73;7.85;;;;;;;;;;5103538;28;20430;-82
2021/11/03 04:10:51;;;;;;;8.45;7.60;;;;;;;;;;5106846;28;20493;-83
2021/11/03 04:13:18;;;;;;;8.82;7.78;;;;;;;;;;5104651;28;20401;-83
2021/11/03 04:15:45;;;;;;;9.02;8.07;;;;;;;;;;5107553;28;20394;-83
2021/11/03 04:18:11;;;;;;;9.45;8.45;;;;;;;;;;5096273;28;20932;-82
2021/11/03 04:20:38;;;;;;;8.88;7.95;;;;;;;;;;5093624;28;20407;-83
2021/11/03 04:23:07;;;;;;;10.13;8.32;;;;;;;;;;5102096;28;20402;-83
2021/11/03 04:25:34;;;;;;;9.40;8.13;;;;;;;;;;5107055;28;20395;-82
2021/11/03 04:28:02;;;;;;;9.00;8.10;;;;;;;;;;5097601;28;20394;-83
2021/11/03 04:30:31;;;;;;;8.97;7.83;;;;;;;;;;5104751;27;20446;-83
2021/11/03 04:32:58;;;;;;;9.02;8.10;;;;;;;;;;5093855;28;20400;-83
2021/11/03 04:35:25;;;;;;;9.40;8.50;;;;;;;;;;5107747;28;20402;-83
2021/11/03 04:37:53;;;;;;;9.45;8.55;;;;;;;;;;5107155;28;20731;-83
2021/11/03 04:40:22;;;;;;;9.30;8.13;;;;;;;;;;5103845;28;20410;-82
2021/11/03 04:42:49;;;;;;;9.00;8.10;;;;;;;;;;5107856;28;20470;-83
2021/11/03 04:45:18;;;;;;;8.55;7.47;;;;;;;;;;5107819;28;20394;-82
2021/11/03 04:47:45;;;;;;;9.60;8.38;;;;;;;;;;5104521;27;20398;-83
2021/11/03 04:50:16;;;;;;;9.00;8.10;;;;;;;;;;5107594;28;20406;-83
2021/11/03 04:52:42;;;;;;;9.88;7.97;;;;;;;;;;5105525;28;20413;-83
2021/11/03 04:55:10;;;;;;;8.70;7.80;;;;;;;;;;5099678;28;20704;-83
2021/11/03 04:57:38;;;;;;;8.20;7.45;;;;;;;;;;5094236;28;20419;-83
2021/11/03 05:00:09;;;;;;;8.13;7.32;;;;;;;;;;5104800;28;20890;-83
2021/11/03 05:02:36;;;;;;;8.25;7.15;;;;;;;;;;5104851;27;20402;-83
2021/11/03 05:05:02;;;;;;;8.25;7.38;;;;;;;;;;5096029;28;20419;-83
2021/11/03 05:07:29;;;;;;;8.20;7.23;;;;;;;;;;5104903;28;20398;-83
2021/11/03 05:09:56;;;;;;;7.70;6.90;;;;;;;;;;5101837;28;20519;-83
2021/11/03 05:12:23;;;;;;;8.05;7.25;;;;;;;;;;5105537;28;20578;-83
2021/11/03 05:14:51;;;;;;;8.07;7.25;;;;;;;;;;5102771;28;20683;-83
2021/11/03 05:17:18;;;;;;;7.95;7.15;;;;;;;;;;5103842;28;20403;-83
2021/11/03 05:19:45;;;;;;;7.63;6.82;;;;;;;;;;5102676;28;20410;-83
2021/11/03 05:22:16;;;;;;;7.57;6.70;;;;;;;;;;5100401;28;20398;-83
2021/11/03 05:24:43;;;;;;;7.63;6.88;;;;;;;;;;5080061;28;20915;-83
2021/11/03 05:27:12;;;;;;;9.23;7.20;;;;;;;;;;5105765;28;20980;-83
2021/11/03 05:29:39;;;;;;;7.88;7.07;;;;;;;;;;5106835;28;20418;-83
2021/11/03 05:32:08;;;;;;;8.15;6.97;;;;;;;;;;5103511;28;20398;-83
2021/11/03 05:34:35;;;;;;;7.20;6.50;;;;;;;;;;5104017;28;20417;-83
2021/11/03 05:37:03;;;;;;;7.50;6.28;;;;;;;;;;5105837;28;20402;-83
2021/11/03 05:39:31;;;;;;;8.23;6.63;;;;;;;;;;5106198;28;20983;-83
2021/11/03 05:41:58;;;;;;;7.75;6.50;;;;;;;;;;5106480;28;20394;-83
2021/11/03 05:44:25;;;;;;;7.40;6.10;;;;;;;;;;5119499;28;20391;-84
2021/11/03 05:46:54;;;;;;;7.88;6.07;;;;;;;;;;5123955;28;20495;-83
2021/11/03 05:49:26;;;;;;;6.78;5.47;;;;;;;;;;5105151;28;20403;-83
2021/11/03 05:51:54;;;;;;;6.97;5.50;;;;;;;;;;5104019;28;20400;-83
2021/11/03 05:54:26;;;;;;;5.88;5.28;;;;;;;;;;5106218;28;20885;-82
2021/11/03 05:56:53;;;;;;;6.32;5.57;;;;;;;;;;5100861;28;20426;-83
2021/11/03 05:59:20;;;;;;;5.88;5.10;;;;;;;;;;5104335;28;20427;-83
2021/11/03 06:01:47;;;;;;;6.03;5.43;;;;;;;;;;5100027;28;20398;-83
2021/11/03 06:04:14;;;;;;;7.00;5.50;;;;;;;;;;5100012;28;20395;-83
2021/11/03 06:06:42;;;;;;;6.78;5.57;;;;;;;;;;5095356;28;20906;-83
2021/11/03 06:09:09;;;;;;;6.32;5.40;;;;;;;;;;5091399;28;20516;-83
2021/11/03 06:11:38;;;;;;;6.43;5.35;;;;;;;;;;5095600;28;20394;-83
2021/11/03 06:14:05;;;;;;;6.20;5.60;;;;;;;;;;5105452;28;20414;-84
2021/11/03 06:16:32;;;;;;;7.63;5.85;;;;;;;;;;5093636;28;20392;-83
2021/11/03 06:19:00;;;;;;;6.53;5.90;;;;;;;;;;5099347;28;20512;-83
2021/11/03 06:21:27;;;;;;;6.30;5.70;;;;;;;;;;5096063;28;20407;-83
2021/11/03 06:23:55;;;;;;;6.60;5.57;;;;;;;;;;5098718;28;20617;-83
2021/11/03 06:26:23;;;;;;;6.22;5.63;;;;;;;;;;5093572;28;20406;-83
2021/11/03 06:28:51;;;;;;;6.32;5.68;;;;;;;;;;5092738;28;20398;-83
2021/11/03 06:31:18;;;;;;;6.70;6.00;;;;;;;;;;5093405;27;20466;-84
2021/11/03 06:33:45;;;;;;;6.78;6.07;;;;;;;;;;5092356;28;20445;-84
2021/11/03 06:36:15;;;;;;;6.95;6.25;;;;;;;;;;5092619;28;20405;-85
2021/11/03 06:38:42;;;;;;;8.02;5.90;;;;;;;;;;5089407;28;20896;-84
2021/11/03 06:41:15;;;;;;;8.55;7.65;;;;;;;;;;5090582;28;20812;-86
2021/11/03 06:43:42;;;;;;;8.13;7.30;;;;;;;;;;5094700;28;20414;-83
2021/11/03 06:46:09;;;;;;;8.50;7.07;;;;;;;;;;5097554;28;20399;-83
2021/11/03 06:48:36;;;;;;;7.70;6.38;;;;;;;;;;5091961;28;20398;-83
2021/11/03 06:51:03;;;;;;;7.47;6.37;;;;;;;;;;5102527;28;20410;-80
2021/11/03 06:53:33;;;;;;;7.90;6.30;;;;;;;;;;5099069;28;20467;-84
2021/11/03 06:56:00;;;;;;;7.63;6.20;;;;;;;;;;5100573;28;20397;-82
2021/11/03 06:58:29;;;;;;;8.35;6.80;;;;;;;;;;5100792;28;20426;-82
2021/11/03 07:00:57;;;;;;;8.65;6.63;;;;;;;;;;5098898;28;20757;-83
2021/11/03 07:03:25;;;;;;;7.70;6.47;;;;;;;;;;5095104;28;20724;-83
2021/11/03 07:05:53;;;;;;;7.82;6.60;;;;;;;;;;5098836;28;20448;-84
2021/11/03 07:08:21;;;;;;;7.10;6.20;;;;;;;;;;5100766;28;20399;-83
2021/11/03 07:10:51;;;;;;;8.23;6.47;;;;;;;;;;5099561;28;20463;-83
2021/11/03 07:13:20;;;;;;;7.95;6.45;;;;;;;;;;5101649;28;20394;-83
2021/11/03 07:15:49;;;;;;;8.68;7.00;;;;;;;;;;5097923;28;20430;-83
2021/11/03 07:18:16;;;;;;;7.00;5.70;;;;;;;;;;5101230;28;20420;-83
2021/11/03 07:20:45;;;;;;;6.13;5.40;;;;;;;;;;5097175;28;20403;-84
2021/11/03 07:23:13;;;;;;;6.82;5.88;;;;;;;;;;5092265;28;20409;-83
2021/11/03 07:25:41;;;;;;;7.05;5.78;;;;;;;;;;5097414;28;20406;-83
2021/11/03 07:28:07;;;;;;;6.97;5.75;;;;;;;;;;5098436;28;20395;-83
2021/11/03 07:30:37;;;;;;;6.43;5.50;;;;;;;;;;5095502;28;21413;-84
2021/11/03 07:33:06;;;;;;;7.10;6.03;;;;;;;;;;5102197;28;20907;-83
2021/11/03 07:35:35;;;;;;;5.82;5.07;;;;;;;;;;5095336;28;20779;-83
2021/11/03 07:38:03;;;;;;;5.88;5.25;;;;;;;;;;5100281;28;20394;-83
2021/11/03 07:40:32;;;;;;;5.95;5.38;;;;;;;;;;5100591;28;20455;-83
2021/11/03 07:43:02;;;;;;;6.18;5.43;;;;;;;;;;5103138;28;20395;-83
2021/11/03 07:45:31;;;;;;;6.15;4.97;;;;;;;;;;5100191;28;20759;-83
2021/11/03 07:47:59;;;;;;;5.22;4.70;;;;;;;;;;5098930;28;20395;-83
2021/11/03 07:50:32;;;;;;;4.80;4.40;;;;;;;;;;5103731;28;20459;-83
2021/11/03 07:52:59;;;;;;;6.35;4.55;;;;;;;;;;5083716;28;21261;-83
2021/11/03 07:55:27;;;;;;;4.93;4.43;;;;;;;;;;5080616;28;20831;-83
2021/11/03 07:57:54;;;;;;;5.07;4.38;;;;;;;;;;5083040;28;20411;-83
2021/11/03 08:00:24;;;;;;;4.35;3.95;;;;;;;;;;5085654;28;20416;-83
2021/11/03 08:02:50;;;;;;;4.70;4.07;;;;;;;;;;5082230;28;20402;-83
2021/11/03 08:05:17;;;;;;;5.95;3.95;;;;;;;;;;5090279;28;20397;-83
2021/11/03 08:07:46;;;;;;;4.88;3.88;;;;;;;;;;5087347;28;20970;-84
2021/11/03 08:10:16;;;;;;;4.32;3.55;;;;;;;;;;5082172;28;20412;-83
2021/11/03 08:12:43;;;;;;;4.93;3.45;;;;;;;;;;5084026;28;20401;-83
2021/11/03 08:15:11;;;;;;;5.68;3.67;;;;;;;;;;5083237;28;20408;-83
2021/11/03 08:17:40;;;;;;;4.23;3.60;;;;;;;;;;5082004;28;20487;-83
2021/11/03 08:20:12;;;;;;;5.20;3.63;;;;;;;;;;5079473;28;20510;-83
2021/11/03 08:22:39;;;;;;;3.90;3.35;;;;;;;;;;5077141;28;20410;-83
2021/11/03 08:25:08;;;;;;;4.38;3.97;;;;;;;;;;5076835;28;20872;-83
2021/11/03 08:27:36;;;;;;;4.97;4.20;;;;;;;;;;5080518;28;21227;-83
2021/11/03 08:30:06;;;;;;;4.75;3.97;;;;;;;;;;5079362;28;20400;-83
2021/11/03 08:32:37;;;;;;;6.40;3.45;;;;;;;;;;5084878;28;20960;-83
2021/11/03 08:35:07;;;;;;;5.40;3.53;;;;;;;;;;5086279;28;20457;-83
2021/11/03 08:37:38;;;;;;;4.13;3.10;;;;;;;;;;5086107;28;20407;-83
2021/11/03 08:40:09;;;;;;;5.88;3.30;;;;;;;;;;5080652;28;20422;-83
2021/11/03 08:42:37;;;;;;;5.28;3.67;;;;;;;;;;5083697;28;20408;-83
2021/11/03 08:45:04;;;;;;;5.68;3.33;;;;;;;;;;5084747;28;20408;-83
2021/11/03 08:47:32;;;;;;;5.57;3.60;;;;;;;;;;5083235;28;20757;-83
2021/11/03 08:49:59;;;;;;;5.65;3.30;;;;;;;;;;5085630;28;20517;-83
2021/11/03 08:52:26;;;;;;;6.85;3.40;;;;;;;;;;5102180;28;20403;-83
2021/11/03 08:54:53;;;;;;;4.03;3.15;;;;;;;;;;5102800;28;20398;-83
2021/11/03 08:57:22;;;;;;;5.25;3.50;;;;;;;;;;5105900;28;20493;-83
2021/11/03 08:59:49;;;;;;;4.65;3.50;;;;;;;;;;5106835;28;20754;-83
2021/11/03 09:02:16;;;;;;;4.53;3.20;;;;;;;;;;5109634;28;20408;-83
2021/11/03 09:04:43;;;;;;;5.03;3.13;;;;;;;;;;5127144;28;20399;-82
2021/11/03 09:07:12;;;;;;;5.03;3.53;;;;;;;;;;5123478;28;20403;-83
2021/11/03 09:09:39;;;;;;;4.70;3.05;;;;;;;;;;5115537;28;20398;-83
2021/11/03 09:12:08;;;;;;;5.97;3.28;;;;;;;;;;5102908;28;20398;-83
2021/11/03 09:14:36;;;;;;;4.30;3.10;;;;;;;;;;5104232;28;20412;-84
2021/11/03 09:17:03;;;;;;;5.47;3.10;;;;;;;;;;5105428;28;20410;-83
2021/11/03 09:19:30;;;;;;;4.80;3.13;;;;;;;;;;5104911;28;20442;-84
2021/11/03 09:21:57;;;;;;;5.78;3.00;;;;;;;;;;5104564;28;20482;-83
2021/11/03 09:24:24;;;;;;;4.82;2.95;;;;;;;;;;5100840;28;20404;-83
2021/11/03 09:26:51;;;;;;;5.97;3.10;;;;;;;;;;5106414;28;20425;-83
2021/11/03 09:29:18;;;;;;;5.88;2.90;;;;;;;;;;5103619;28;20455;-83
2021/11/03 09:31:46;;;;;;;4.00;2.80;;;;;;;;;;5101228;28;20407;-83
2021/11/03 09:34:14;;;;;;;5.33;2.60;;;;;;;;;;5104460;28;20409;-83
2021/11/03 09:36:43;;;;;;;7.32;2.30;;;;;;;;;;5099692;28;20394;-83
2021/11/03 09:39:11;;;;;;;7.43;2.65;;;;;;;;;;5103423;28;20437;-83
2021/11/03 09:41:43;;;;;;;5.90;2.28;;;;;;;;;;5103086;28;20402;-84
2021/11/03 09:44:17;;;;;;;5.90;2.53;;;;;;;;;;5101591;28;20468;-84
2021/11/03 09:46:47;;;;;;;8.43;2.60;;;;;;;;;;5102042;28;20407;-83
2021/11/03 09:49:20;;;;;;;6.60;2.50;;;;;;;;;;5100902;28;20402;-84
2021/11/03 09:51:51;;;;;;;7.78;2.17;;;;;;;;;;5101872;28;20387;-84
2021/11/03 09:54:22;;;;;;;7.07;2.47;;;;;;;;;;5101570;28;20395;-84
2021/11/03 09:56:56;;;;;;;5.60;2.28;;;;;;;;;;5105790;28;20398;-83
2021/11/03 09:59:32;;;;;;;5.30;2.20;;;;;;;;;;5104587;28;20451;-83
2021/11/03 10:02:11;;;;;;;7.25;2.70;;;;;;;;;;5100728;28;20882;-83
2021/11/03 10:04:49;;;;;;;6.32;2.50;;;;;;;;;;5105313;28;20403;-83
2021/11/03 10:07:26;;;;;;;6.05;2.60;;;;;;;;;;5104153;28;20410;-83
2021/11/03 10:09:53;;;;;;;4.68;2.42;;;;;;;;;;5101104;28;20460;-83
2021/11/03 10:12:20;;;;;;;5.97;2.35;;;;;;;;;;5100421;28;20398;-83
2021/11/03 10:14:47;;;;;;;5.72;2.33;;;;;;;;;;5103790;28;20974;-83
2021/11/03 10:17:22;;;;;;;6.10;2.03;;;;;;;;;;5103238;28;20433;-83
2021/11/03 10:19:49;;;;;;;5.47;2.30;;;;;;;;;;5095991;28;20446;-83
2021/11/03 10:22:35;;;;;;;7.40;2.00;;;;;;;;;;5105556;28;20430;-83
2021/11/03 10:25:21;;;;;;;5.70;2.20;;;;;;;;;;5101147;28;20408;-83
2021/11/03 10:27:52;;;;;;;6.95;2.60;;;;;;;;;;5101453;28;20407;-83
2021/11/03 10:30:28;;;;;;;5.77;2.50;;;;;;;;;;5103368;28;20410;-83
2021/11/03 10:32:58;;;;;;;7.50;2.72;;;;;;;;;;5103915;28;20405;-83
2021/11/03 10:35:29;;;;;;;9.63;3.28;;;;;;;;;;5103630;28;20433;-83
2021/11/03 10:38:04;;;;;;;8.57;2.97;;;;;;;;;;5105582;28;20398;-84
2021/11/03 10:40:41;;;;;;;7.65;2.70;;;;;;;;;;5102993;28;20552;-83
2021/11/03 10:43:23;;;;;;;7.25;3.05;;;;;;;;;;5104613;28;20456;-83
2021/11/03 10:45:58;;;;;;;9.70;3.70;;;;;;;;;;5094414;28;20414;-83
2021/11/03 10:48:30;;;;;;;8.07;3.65;;;;;;;;;;5101803;28;20477;-83
2021/11/03 10:51:17;;;;;;;7.78;3.50;;;;;;;;;;5100629;28;20410;-83
2021/11/03 10:53:52;;;;;;;8.73;3.50;;;;;;;;;;5096152;28;20484;-84
2021/11/03 10:56:24;;;;;;;9.43;3.40;;;;;;;;;;5101474;28;20740;-83
2021/11/03 10:59:06;;;;;;;10.55;3.50;;;;;;;;;;5102316;28;20403;-84
2021/11/03 11:01:39;;;;;;;9.45;3.45;;;;;;;;;;5103231;28;21020;-84
2021/11/03 11:04:12;;;;;;;10.63;3.50;;;;;;;;;;5099133;28;20420;-83
2021/11/03 11:06:45;;;;;;;9.68;3.67;;;;;;;;;;5102886;28;20416;-84
2021/11/03 11:09:25;;;;;;;9.75;3.60;;;;;;;;;;5100432;28;20499;-83
2021/11/03 11:11:58;;;;;;;10.88;3.47;;;;;;;;;;5097412;28;20478;-83
2021/11/03 11:14:27;;;;;;;11.20;3.55;;;;;;;;;;5100877;28;20470;-83
2021/11/03 11:16:58;;;;;;;12.77;3.75;;;;;;;;;;5099036;28;20526;-82
2021/11/03 11:19:40;;;;;;;9.73;3.60;;;;;;;;;;5098486;28;20414;-83
2021/11/03 11:22:21;;;;;;;13.52;3.63;;;;;;;;;;5099766;28;20419;-82
2021/11/03 11:24:55;;;;;;;10.17;3.27;;;;;;;;;;5092467;28;20901;-82
2021/11/03 11:27:27;;;;;;;11.68;3.70;;;;;;;;;;5097058;28;20404;-81
2021/11/03 11:30:01;;;;;;;14.47;4.10;;;;;;;;;;5100796;28;20764;-82
2021/11/03 11:32:34;;;;;;;13.80;4.00;;;;;;;;;;5102702;27;20430;-81
2021/11/03 11:35:14;;;;;;;14.55;4.20;;;;;;;;;;5102130;28;20479;-81
2021/11/03 11:37:49;;;;;;;10.80;4.00;;;;;;;;;;5104080;28;20394;-82
2021/11/03 11:40:39;;;;;;;13.52;4.00;;;;;;;;;;5100346;28;20422;-82
2021/11/03 11:43:13;;;;;;;10.45;3.78;;;;;;;;;;5103971;28;20549;-81
2021/11/03 11:45:41;;;;;;;13.20;4.40;;;;;;;;;;5105577;28;20834;-81
2021/11/03 11:48:22;;;;;;;11.95;3.85;;;;;;;;;;5102291;28;20403;-81
2021/11/03 11:50:54;;;;;;;13.77;4.35;;;;;;;;;;5104377;28;20406;-82
2021/11/03 11:53:25;;;;;;;13.23;3.72;;;;;;;;;;5102056;28;20399;-81
2021/11/03 11:56:15;;;;;;;12.57;4.05;;;;;;;;;;5108352;28;20804;-82
2021/11/03 11:58:44;;;;;;;8.80;3.90;;;;;;;;;;5107113;28;20426;-81
2021/11/03 12:01:24;;;;;;;9.52;3.50;;;;;;;;;;5101127;28;20422;-81
2021/11/03 12:04:22;;;;;;;10.90;3.78;;;;;;;;;;5102410;28;20392;-81
2021/11/03 12:07:21;;;;;;;12.07;4.10;;;;;;;;;;5105842;28;20739;-81
2021/11/03 12:10:26;;;;;;;12.07;4.60;;;;;;;;;;5102917;28;20775;-81
2021/11/03 12:13:19;;;;;;;9.05;4.00;;;;;;;;;;5079762;28;20504;-81
2021/11/03 12:16:22;;;;;;;11.15;4.05;;;;;;;;;;5083631;28;20399;-80
2021/11/03 12:18:55;;;;;;;13.05;4.80;;;;;;;;;;5097439;28;20473;-80
2021/11/03 12:21:36;;;;;;;11.48;4.10;;;;;;;;;;5097922;28;20416;-80
2021/11/03 12:24:28;;;;;;;11.47;4.00;;;;;;;;;;5098908;28;20865;-81
2021/11/03 12:27:16;;;;;;;9.63;3.70;;;;;;;;;;5103097;28;20391;-80
2021/11/03 12:29:48;;;;;;;9.32;3.60;;;;;;;;;;5102478;28;20391;-80
2021/11/03 12:32:41;;;;;;;11.00;3.95;;;;;;;;;;5101148;28;20407;-80
2021/11/03 12:35:44;;;;;;;9.32;3.60;;;;;;;;;;5089582;28;20401;-80
2021/11/03 12:38:41;;;;;;;10.05;3.67;;;;;;;;;;5104026;28;20441;-80
2021/11/03 12:41:21;;;;;;;11.83;3.60;;;;;;;;;;5069635;28;20550;-80
2021/11/03 12:43:50;;;;;;;13.02;3.80;;;;;;;;;;5094000;27;20450;-80
2021/11/03 12:46:20;;;;;;;10.63;3.45;;;;;;;;;;5095834;27;20410;-81
2021/11/03 12:48:50;;;;;;;11.63;4.18;;;;;;;;;;5098088;28;20410;-81
2021/11/03 12:51:20;;;;;;;9.85;4.57;;;;;;;;;;5099007;28;20413;-81
2021/11/03 12:53:48;;;;;;;13.70;4.63;;;;;;;;;;5098857;28;20437;-81
2021/11/03 12:56:20;;;;;;;10.40;4.40;;;;;;;;;;5099598;28;20406;-81
2021/11/03 12:58:52;;;;;;;11.63;4.57;;;;;;;;;;5097819;28;20403;-81
2021/11/03 13:01:23;;;;;;;10.25;4.20;;;;;;;;;;5097375;27;20446;-81
2021/11/03 13:03:53;;;;;;;9.65;4.45;;;;;;;;;;5099665;28;20411;-81
2021/11/03 13:06:25;;;;;;;10.90;4.35;;;;;;;;;;5103787;28;20393;-81
2021/11/03 13:08:52;;;;;;;11.57;4.68;;;;;;;;;;5094195;27;20414;-82
2021/11/03 13:11:24;;;;;;;14.13;5.05;;;;;;;;;;5101076;28;20897;-82
2021/11/03 13:13:53;;;;;;;12.63;4.50;;;;;;;;;;5097949;28;20407;-81
2021/11/03 13:16:35;;;;;;;9.80;4.30;;;;;;;;;;5096792;28;20406;-81
2021/11/03 13:19:18;;;;;;;9.40;4.28;;;;;;;;;;5101015;28;20391;-81
2021/11/03 13:21:45;;;;;;;12.60;4.65;;;;;;;;;;5093678;27;20419;-81
2021/11/03 13:24:16;;;;;;;11.48;4.72;;;;;;;;;;5098738;28;20403;-81
2021/11/03 13:26:47;;;;;;;9.18;4.32;;;;;;;;;;5097922;28;20408;-81
2021/11/03 13:29:26;;;;;;;13.13;4.78;;;;;;;;;;5095166;28;20685;-81
2021/11/03 13:32:15;;;;;;;10.77;5.00;;;;;;;;;;5096966;28;20402;-82
2021/11/03 13:34:46;;;;;;;11.35;5.85;;;;;;;;;;5094285;28;20812;-81
2021/11/03 13:37:23;;;;;;;10.20;5.68;;;;;;;;;;5094007;27;20391;-81
2021/11/03 13:39:56;;;;;;;9.95;5.57;;;;;;;;;;5089783;28;20442;-81
2021/11/03 13:42:38;;;;;;;10.10;5.70;;;;;;;;;;5095785;28;20444;-81
2021/11/03 13:45:18;;;;;;;11.57;5.63;;;;;;;;;;5094182;28;21009;-81
2021/11/03 13:47:58;;;;;;;8.10;5.35;;;;;;;;;;5094916;28;20483;-81
2021/11/03 13:50:28;;;;;;;8.27;5.57;;;;;;;;;;5094823;28;20406;-81
2021/11/03 13:53:12;;;;;;;12.90;5.40;;;;;;;;;;5075649;28;20415;-81
2021/11/03 13:55:41;;;;;;;12.77;5.85;;;;;;;;;;5075181;28;20402;-81
2021/11/03 13:58:22;;;;;;;13.15;6.00;;;;;;;;;;5074124;28;21034;-81
2021/11/03 14:00:59;;;;;;;9.48;5.88;;;;;;;;;;5075193;28;20435;-81
2021/11/03 14:03:32;;;;;;;13.20;6.03;;;;;;;;;;5076915;28;20432;-82
2021/11/03 14:06:11;;;;;;;11.50;6.10;;;;;;;;;;5074822;28;20392;-80
2021/11/03 14:08:38;;;;;;;10.98;5.28;;;;;;;;;;5072730;28;20714;-80
2021/11/03 14:11:05;;;;;;;11.02;4.43;;;;;;;;;;5074721;28;20412;-80
2021/11/03 14:13:33;;;;;;;8.50;4.20;;;;;;;;;;5078905;28;20404;-80
2021/11/03 14:16:17;;;;;;;9.88;4.22;;;;;;;;;;5076252;28;20438;-82
2021/11/03 14:18:44;;;;;;;12.02;4.82;;;;;;;;;;5073360;28;20404;-82
2021/11/03 14:21:11;;;;;;;9.80;4.97;;;;;;;;;;5074092;28;20411;-81
2021/11/03 14:23:38;;;;;;;13.10;4.73;;;;;;;;;;5077655;28;20419;-81
2021/11/03 14:26:05;;;;;;;10.10;4.07;;;;;;;;;;5077120;28;20825;-81
2021/11/03 14:28:34;;;;;;;7.93;3.97;;;;;;;;;;5079266;28;20406;-82
2021/11/03 14:31:20;;;;;;;11.13;4.47;;;;;;;;;;5073806;28;20414;-79
2021/11/03 14:33:50;;;;;;;11.82;5.10;;;;;;;;;;5075579;28;20400;-81
2021/11/03 14:36:22;;;;;;;9.98;4.05;;;;;;;;;;5075062;28;20459;-81
2021/11/03 14:38:54;;;;;;;5.97;3.10;;;;;;;;;;5070447;28;20400;-82
2021/11/03 14:41:23;;;;;;;8.68;3.50;;;;;;;;;;5077255;28;20446;-82
2021/11/03 14:43:53;;;;;;;8.02;3.83;;;;;;;;;;5074294;28;20404;-81
2021/11/03 14:46:25;;;;;;;11.88;4.28;;;;;;;;;;5073574;28;20455;-82
2021/11/03 14:48:52;;;;;;;7.93;3.47;;;;;;;;;;5074752;28;20392;-82
2021/11/03 14:51:21;;;;;;;9.20;3.70;;;;;;;;;;5080333;28;20470;-81
2021/11/03 14:53:48;;;;;;;8.85;3.83;;;;;;;;;;5097720;28;20395;-81
2021/11/03 14:56:16;;;;;;;9.20;4.00;;;;;;;;;;5094177;28;20394;-82